Time;durP1;ratioP1;P1;durP2;ratioP2;P2;SDS_P1;SDS_P2;PMS_P1;PMS_P2;Temp;Humidity;BMP_temperature;BMP_pressure;BME280_temperature;BME280_humidity;BME280_pressure;Samples;Min_cycle;Max_cycle;Signal;HPM_P1;HPM_P2
2022/06/02 00:01:38;;;;;;;1.20;1.10;;;14.80;58.80;;;;;;5092284;28;20632;-84
2022/06/02 00:04:13;;;;;;;0.60;0.60;;;14.40;58.80;;;;;;5096710;28;21230;-84
2022/06/02 00:06:45;;;;;;;1.00;0.70;;;14.60;58.80;;;;;;5090427;28;20631;-87
2022/06/02 00:09:26;;;;;;;0.40;0.40;;;14.60;59.30;;;;;;5105152;28;21175;-84
2022/06/02 00:12:02;;;;;;;0.70;0.70;;;14.50;58.60;;;;;;5106453;28;20655;-85
2022/06/02 00:14:37;;;;;;;0.97;0.97;;;14.60;59.00;;;;;;5110485;28;20645;-84
2022/06/02 00:17:16;;;;;;;0.80;0.80;;;14.60;58.90;;;;;;5101248;28;20639;-87
2022/06/02 00:19:52;;;;;;;0.67;0.67;;;14.50;58.70;;;;;;5090395;28;20605;-84
2022/06/02 00:22:28;;;;;;;0.90;0.70;;;14.30;59.00;;;;;;5109299;28;20634;-84
2022/06/02 00:25:01;;;;;;;0.50;0.50;;;14.50;59.30;;;;;;5090008;28;20628;-84
2022/06/02 00:27:37;;;;;;;1.60;1.00;;;14.40;59.00;;;;;;5092134;28;20648;-85
2022/06/02 00:30:14;;;;;;;1.73;0.57;;;14.50;59.00;;;;;;5108269;28;20660;-85
2022/06/02 00:32:48;;;;;;;1.03;0.83;;;14.50;59.20;;;;;;5098665;28;20650;-86
2022/06/02 00:35:23;;;;;;;0.70;0.70;;;14.50;59.10;;;;;;5105203;28;20620;-85
2022/06/02 00:37:56;;;;;;;0.50;0.50;;;14.60;59.50;;;;;;5108218;28;21026;-83
2022/06/02 00:40:28;;;;;;;0.40;0.40;;;14.80;60.00;;;;;;5104820;28;20623;-85
2022/06/02 00:43:05;;;;;;;1.43;1.00;;;14.60;59.30;;;;;;5109770;28;20619;-87
2022/06/02 00:45:33;;;;;;;0.60;0.50;;;14.70;59.10;;;;;;5108718;28;20971;-85
2022/06/02 00:48:12;;;;;;;1.07;0.90;;;14.50;61.50;;;;;;5097045;28;20635;-83
2022/06/02 00:50:49;;;;;;;0.63;0.50;;;14.40;59.60;;;;;;5102819;28;20943;-85
2022/06/02 00:53:28;;;;;;;0.50;0.50;;;14.30;59.70;;;;;;5090172;28;21019;-84
2022/06/02 00:59:08;;;;;;;0.50;0.50;;;14.50;60.40;;;;;;5095597;28;21240;-84
2022/06/02 01:01:37;;;;;;;0.50;0.50;;;14.40;60.30;;;;;;5100574;28;20721;-84
2022/06/02 01:04:10;;;;;;;0.80;0.80;;;14.30;60.70;;;;;;5098692;28;20644;-84
2022/06/02 01:06:50;;;;;;;0.70;0.60;;;14.30;60.10;;;;;;5101404;28;20620;-83
2022/06/02 01:09:44;;;;;;;0.60;0.50;;;14.30;60.50;;;;;;5098733;28;20638;-84
2022/06/02 01:12:30;;;;;;;0.50;0.50;;;14.40;60.70;;;;;;5095863;28;20682;-85
2022/06/02 01:15:11;;;;;;;0.80;0.80;;;14.30;60.20;;;;;;5105879;28;20619;-84
2022/06/02 01:17:51;;;;;;;0.60;0.43;;;14.30;59.70;;;;;;5105341;28;20642;-83
2022/06/02 01:20:31;;;;;;;0.60;0.53;;;14.30;59.60;;;;;;5105753;28;20689;-84
2022/06/02 01:23:27;;;;;;;0.60;0.60;;;14.30;59.60;;;;;;5093315;28;20624;-86
2022/06/02 01:26:28;;;;;;;0.67;0.60;;;14.30;60.10;;;;;;5092617;28;20621;-85
2022/06/02 01:29:02;;;;;;;0.70;0.70;;;14.30;59.90;;;;;;5093910;28;20625;-85
2022/06/02 01:31:48;;;;;;;0.67;0.67;;;14.20;59.90;;;;;;5108654;28;20967;-85
2022/06/02 01:34:31;;;;;;;0.50;0.50;;;14.00;60.20;;;;;;5113224;28;20650;-85
2022/06/02 01:37:07;;;;;;;1.40;0.80;;;14.10;60.00;;;;;;5099396;28;21065;-87
2022/06/02 01:39:52;;;;;;;1.27;0.57;;;14.10;59.60;;;;;;5093986;28;20608;-84
2022/06/02 01:42:29;;;;;;;1.00;0.70;;;14.10;60.00;;;;;;5106766;28;20634;-85
2022/06/02 01:45:03;;;;;;;1.83;0.60;;;14.00;60.00;;;;;;5111399;28;20634;-84
2022/06/02 01:47:36;;;;;;;0.57;0.47;;;14.00;61.00;;;;;;5113533;28;21015;-85
2022/06/02 01:50:18;;;;;;;0.60;0.60;;;13.90;60.50;;;;;;5100587;28;20949;-84
2022/06/02 01:53:02;;;;;;;1.27;0.80;;;14.30;62.80;;;;;;5107981;28;20661;-84
2022/06/02 01:55:50;;;;;;;0.50;0.50;;;13.90;61.20;;;;;;5107936;28;20633;-84
2022/06/02 01:58:32;;;;;;;0.63;0.60;;;13.80;61.00;;;;;;5100334;28;21073;-84
2022/06/02 02:01:05;;;;;;;0.80;0.60;;;13.90;62.00;;;;;;5113125;28;20877;-84
2022/06/02 02:03:49;;;;;;;0.50;0.50;;;13.90;61.50;;;;;;5112773;28;20622;-86
2022/06/02 02:06:25;;;;;;;1.30;0.97;;;13.90;61.30;;;;;;5095032;28;20723;-85
2022/06/02 02:09:04;;;;;;;0.50;0.50;;;14.00;62.60;;;;;;5100555;28;21112;-87
2022/06/02 02:11:46;;;;;;;0.43;0.43;;;14.00;62.20;;;;;;5107311;28;21299;-86
2022/06/02 02:14:42;;;;;;;1.00;1.00;;;13.70;62.00;;;;;;5091869;28;20621;-85
2022/06/02 02:17:22;;;;;;;0.60;0.60;;;13.80;62.90;;;;;;5065934;28;20743;-86
2022/06/02 02:19:57;;;;;;;0.80;0.80;;;13.60;63.30;;;;;;5105649;28;21192;-86
2022/06/02 02:22:34;;;;;;;1.13;0.90;;;13.60;63.50;;;;;;5112507;28;20669;-87
2022/06/02 02:25:12;;;;;;;0.60;0.60;;;13.70;63.50;;;;;;5096618;28;21108;-85
2022/06/02 02:28:04;;;;;;;0.60;0.60;;;13.60;62.70;;;;;;5093403;28;20612;-86
2022/06/02 02:30:41;;;;;;;0.70;0.70;;;13.60;62.80;;;;;;5095867;28;21176;-85
2022/06/02 02:33:21;;;;;;;6.20;0.83;;;13.60;63.30;;;;;;5092629;28;20793;-87
2022/06/02 02:35:58;;;;;;;0.80;0.60;;;13.60;63.40;;;;;;5091880;28;20628;-86
2022/06/02 02:38:34;;;;;;;0.93;0.93;;;13.50;63.50;;;;;;5090456;28;20662;-87
2022/06/02 02:41:05;;;;;;;0.70;0.70;;;13.60;63.30;;;;;;5100028;28;21966;-86
2022/06/02 02:43:38;;;;;;;0.77;0.40;;;13.60;64.20;;;;;;5093056;28;20765;-88
2022/06/02 02:46:14;;;;;;;0.77;0.77;;;13.40;64.70;;;;;;5101419;28;20634;-86
2022/06/02 02:48:51;;;;;;;1.07;0.80;;;13.60;66.50;;;;;;5104915;28;20619;-87
2022/06/02 02:51:34;;;;;;;0.60;0.60;;;12.90;63.80;;;;;;5103330;28;20655;-86
2022/06/02 02:54:10;;;;;;;0.60;0.60;;;13.30;64.10;;;;;;5100229;28;20662;-86
2022/06/02 02:56:42;;;;;;;0.97;0.70;;;13.20;65.10;;;;;;5091277;28;20730;-87
2022/06/02 02:59:19;;;;;;;0.80;0.67;;;13.30;64.70;;;;;;5093892;28;21159;-87
2022/06/02 03:01:52;;;;;;;1.23;0.90;;;13.20;65.60;;;;;;5092695;28;20613;-86
2022/06/02 03:04:34;;;;;;;1.30;0.70;;;13.50;65.90;;;;;;5099205;28;20660;-85
2022/06/02 03:07:03;;;;;;;0.93;0.67;;;13.40;64.30;;;;;;5090327;28;20681;-86
2022/06/02 03:09:41;;;;;;;1.03;0.73;;;13.40;64.00;;;;;;5091277;28;20624;-86
2022/06/02 03:12:14;;;;;;;1.90;1.30;;;13.30;65.70;;;;;;5106008;28;20662;-88
2022/06/02 03:15:02;;;;;;;0.87;0.87;;;13.30;65.30;;;;;;5101349;28;21052;-86
2022/06/02 03:17:46;;;;;;;0.77;0.73;;;13.40;64.10;;;;;;5106693;28;20643;-86
2022/06/02 03:20:19;;;;;;;0.70;0.70;;;13.30;64.30;;;;;;5097697;28;20648;-86
2022/06/02 03:23:06;;;;;;;0.80;0.80;;;13.40;64.00;;;;;;5103501;28;20671;-85
2022/06/02 03:25:39;;;;;;;0.80;0.80;;;13.40;63.00;;;;;;5107284;28;20673;-86
2022/06/02 03:28:17;;;;;;;0.70;0.70;;;13.40;63.10;;;;;;5089052;28;20624;-85
2022/06/02 03:30:49;;;;;;;0.67;0.67;;;13.40;62.60;;;;;;5100545;28;20656;-86
2022/06/02 03:33:41;;;;;;;1.07;0.90;;;13.40;62.50;;;;;;5094864;28;20672;-86
2022/06/02 03:36:15;;;;;;;1.23;1.13;;;13.30;63.50;;;;;;5098810;28;21239;-87
2022/06/02 03:38:56;;;;;;;1.67;1.10;;;13.40;63.10;;;;;;5109460;28;21446;-88
2022/06/02 03:41:35;;;;;;;1.20;0.90;;;13.40;62.40;;;;;;5100537;28;20650;-85
2022/06/02 03:44:12;;;;;;;0.67;0.67;;;13.30;62.70;;;;;;5102542;28;20694;-86
2022/06/02 03:46:53;;;;;;;1.33;0.93;;;13.40;63.30;;;;;;5090696;28;20652;-87
2022/06/02 03:49:48;;;;;;;1.13;1.10;;;13.40;62.70;;;;;;5109199;28;21040;-87
2022/06/02 03:52:29;;;;;;;1.43;1.20;;;13.30;63.30;;;;;;5106258;28;20682;-87
2022/06/02 03:55:13;;;;;;;1.40;1.30;;;13.30;63.70;;;;;;5088947;28;20706;-87
2022/06/02 03:57:55;;;;;;;0.77;0.77;;;13.30;63.90;;;;;;5090135;28;20624;-87
2022/06/02 04:00:26;;;;;;;0.70;0.70;;;13.40;63.80;;;;;;5097473;28;20634;-87
2022/06/02 04:02:55;;;;;;;0.73;0.63;;;13.40;64.30;;;;;;5092497;28;20659;-87
2022/06/02 04:05:50;;;;;;;0.83;0.83;;;13.30;64.90;;;;;;5104466;28;20619;-86
2022/06/02 04:08:46;;;;;;;0.80;0.80;;;13.30;64.50;;;;;;5099838;28;20639;-87
2022/06/02 04:14:29;;;;;;;1.47;1.27;;;13.20;65.90;;;;;;5088057;28;20619;-86
2022/06/02 04:17:01;;;;;;;0.63;0.60;;;13.40;66.20;;;;;;5099988;28;20755;-87
2022/06/02 04:22:48;;;;;;;1.10;1.00;;;13.30;66.30;;;;;;5099800;28;20833;-86
2022/06/02 04:25:36;;;;;;;2.67;1.50;;;13.30;67.00;;;;;;5088282;28;20627;-85
2022/06/02 04:28:12;;;;;;;1.13;1.03;;;13.30;67.30;;;;;;5101146;28;20631;-86
2022/06/02 04:30:50;;;;;;;1.17;1.00;;;13.20;67.50;;;;;;5092464;28;20634;-85
2022/06/02 04:33:26;;;;;;;1.17;1.00;;;13.20;68.70;;;;;;5103675;28;20744;-87
2022/06/02 04:36:04;;;;;;;0.90;0.90;;;13.20;67.30;;;;;;5107626;28;20607;-86
2022/06/02 04:38:43;;;;;;;0.97;0.87;;;13.20;66.80;;;;;;5100229;28;21207;-87
2022/06/02 04:41:18;;;;;;;1.10;1.00;;;13.20;67.50;;;;;;5107945;28;20660;-88
2022/06/02 04:43:53;;;;;;;0.80;0.67;;;13.20;67.90;;;;;;5107517;28;21005;-86
2022/06/02 04:46:41;;;;;;;0.80;0.80;;;13.10;67.60;;;;;;5107907;28;20653;-86
2022/06/02 04:49:15;;;;;;;1.07;1.00;;;13.10;68.50;;;;;;5088190;28;20628;-86
2022/06/02 04:51:50;;;;;;;1.43;1.20;;;13.10;69.50;;;;;;5101947;28;20619;-86
2022/06/02 04:54:29;;;;;;;0.87;0.87;;;13.00;69.60;;;;;;5106628;28;21177;-86
2022/06/02 04:57:03;;;;;;;1.13;0.90;;;13.00;70.00;;;;;;5107187;28;20651;-87
2022/06/02 04:59:40;;;;;;;0.83;0.83;;;13.00;70.60;;;;;;5108435;28;21219;-86
2022/06/02 05:02:15;;;;;;;0.70;0.70;;;13.00;70.10;;;;;;5095210;28;21217;-87
2022/06/02 05:04:51;;;;;;;2.00;1.80;;;13.00;69.90;;;;;;5097954;28;20628;-86
2022/06/02 05:07:29;;;;;;;1.90;1.67;;;12.90;69.60;;;;;;5086800;28;20621;-87
2022/06/02 05:10:06;;;;;;;1.50;1.40;;;13.10;70.90;;;;;;5086725;28;20676;-86
2022/06/02 05:12:46;;;;;;;0.80;0.80;;;13.10;71.60;;;;;;5085609;28;21472;-87
2022/06/02 05:15:21;;;;;;;1.13;1.03;;;13.20;70.50;;;;;;5086352;28;20632;-87
2022/06/02 05:18:08;;;;;;;0.97;0.90;;;13.40;70.50;;;;;;5087815;28;20676;-86
2022/06/02 05:21:26;;;;;;;0.57;0.57;;;13.90;68.70;;;;;;5087645;28;21304;-87
2022/06/02 05:24:34;;;;;;;1.67;1.17;;;13.80;69.50;;;;;;5048668;28;20733;-87
2022/06/02 05:27:34;;;;;;;0.90;0.90;;;13.70;68.80;;;;;;5076992;28;20694;-85
2022/06/02 05:30:26;;;;;;;1.00;1.00;;;14.00;65.30;;;;;;5086977;28;21082;-86
2022/06/02 05:33:24;;;;;;;0.70;0.63;;;14.20;65.70;;;;;;5088039;28;20905;-85
2022/06/02 05:36:15;;;;;;;1.07;1.00;;;14.30;64.70;;;;;;5069850;28;20690;-86
2022/06/02 05:39:00;;;;;;;0.77;0.53;;;14.40;63.90;;;;;;5087866;28;20625;-86
2022/06/02 05:41:46;;;;;;;2.93;1.13;;;14.50;64.40;;;;;;5101546;28;20619;-85
2022/06/02 05:44:23;;;;;;;1.50;1.13;;;14.70;62.00;;;;;;5108662;28;20639;-85
2022/06/02 05:47:10;;;;;;;1.10;1.10;;;14.80;61.80;;;;;;5108631;28;20653;-86
2022/06/02 05:49:48;;;;;;;0.80;0.70;;;14.90;60.50;;;;;;5110055;28;21219;-86
2022/06/02 05:52:24;;;;;;;0.77;0.77;;;15.00;61.20;;;;;;5112658;28;20678;-87
2022/06/02 05:55:16;;;;;;;0.80;0.80;;;15.10;60.50;;;;;;5112214;27;21240;-87
2022/06/02 05:57:52;;;;;;;1.30;1.20;;;15.20;61.30;;;;;;5112253;28;20627;-85
2022/06/02 06:00:29;;;;;;;0.90;0.90;;;15.30;60.30;;;;;;5111532;28;20607;-85
2022/06/02 06:03:32;;;;;;;0.77;0.60;;;15.30;59.00;;;;;;5112408;28;20607;-86
2022/06/02 06:06:05;;;;;;;0.77;0.77;;;15.40;59.50;;;;;;5109163;28;20635;-85
2022/06/02 06:08:52;;;;;;;0.60;0.60;;;15.60;59.20;;;;;;5111698;28;20644;-85
2022/06/02 06:11:31;;;;;;;1.43;1.30;;;15.70;59.30;;;;;;5112672;28;21080;-86
2022/06/02 06:14:14;;;;;;;0.83;0.83;;;15.80;59.30;;;;;;5112014;28;20829;-86
2022/06/02 06:16:49;;;;;;;1.40;0.70;;;15.90;59.60;;;;;;5111100;28;20650;-85
2022/06/02 06:19:41;;;;;;;1.30;1.10;;;15.80;59.80;;;;;;5111783;28;21280;-86
2022/06/02 06:22:36;;;;;;;0.97;0.90;;;16.00;59.80;;;;;;5112194;28;20622;-86
2022/06/02 06:25:22;;;;;;;0.80;0.80;;;15.70;60.00;;;;;;5112043;28;20615;-86
2022/06/02 06:28:04;;;;;;;0.50;0.50;;;15.80;59.70;;;;;;5112253;28;20734;-86
2022/06/02 06:30:38;;;;;;;0.90;0.90;;;15.90;59.20;;;;;;5112293;28;20623;-85
2022/06/02 06:33:16;;;;;;;0.63;0.63;;;15.90;59.30;;;;;;5112006;28;20651;-86
2022/06/02 06:36:11;;;;;;;0.83;0.80;;;16.20;59.30;;;;;;5110985;28;21010;-86
2022/06/02 06:38:54;;;;;;;0.70;0.70;;;16.30;58.40;;;;;;5089399;28;21227;-85
2022/06/02 06:41:47;;;;;;;0.80;0.80;;;16.40;59.20;;;;;;5104107;28;20616;-86
2022/06/02 06:44:21;;;;;;;1.00;1.00;;;16.40;59.00;;;;;;5111839;28;20656;-86
2022/06/02 06:46:55;;;;;;;0.60;0.60;;;16.40;57.60;;;;;;5109345;28;21138;-85
2022/06/02 06:49:34;;;;;;;1.33;1.23;;;16.50;58.70;;;;;;5111973;28;20615;-87
2022/06/02 06:52:19;;;;;;;0.90;0.90;;;16.70;57.00;;;;;;5111710;28;20982;-87
2022/06/02 06:54:55;;;;;;;0.63;0.63;;;16.70;56.10;;;;;;5111780;28;20681;-85
2022/06/02 06:57:27;;;;;;;0.90;0.90;;;16.70;56.60;;;;;;5110909;28;20974;-86
2022/06/02 07:00:02;;;;;;;0.77;0.67;;;16.60;56.70;;;;;;5111783;28;20608;-84
2022/06/02 07:02:39;;;;;;;1.00;0.90;;;16.70;56.70;;;;;;5112340;28;20623;-87
2022/06/02 07:05:12;;;;;;;1.23;1.10;;;16.80;56.50;;;;;;5112181;28;20631;-87
2022/06/02 07:07:49;;;;;;;0.60;0.60;;;17.00;57.10;;;;;;5112270;28;21053;-86
2022/06/02 07:10:23;;;;;;;1.13;1.03;;;16.90;56.20;;;;;;5112812;28;20758;-85
2022/06/02 07:12:56;;;;;;;0.80;0.80;;;17.00;56.70;;;;;;5111994;28;20679;-85
2022/06/02 07:15:40;;;;;;;1.87;0.97;;;17.00;57.40;;;;;;5111243;28;20708;-86
2022/06/02 07:18:17;;;;;;;1.37;1.27;;;17.00;57.20;;;;;;5112242;28;21173;-85
2022/06/02 07:20:54;;;;;;;2.43;0.93;;;17.00;56.30;;;;;;5112589;28;20707;-84
2022/06/02 07:23:34;;;;;;;0.77;0.70;;;17.20;56.80;;;;;;5112348;28;21332;-84
2022/06/02 07:26:14;;;;;;;1.03;1.00;;;17.30;57.40;;;;;;5111962;27;20623;-86
2022/06/02 07:28:55;;;;;;;5.20;0.80;;;17.30;57.60;;;;;;5111656;28;20681;-85
2022/06/02 07:31:39;;;;;;;0.97;0.90;;;17.30;56.50;;;;;;5111150;28;21153;-86
2022/06/02 07:34:20;;;;;;;1.37;0.93;;;17.40;57.20;;;;;;5111527;28;21220;-86
2022/06/02 07:37:04;;;;;;;1.50;1.00;;;17.40;57.40;;;;;;5111269;28;20750;-85
2022/06/02 07:40:13;;;;;;;1.30;1.20;;;17.40;56.40;;;;;;5110650;28;21270;-86
2022/06/02 07:43:14;;;;;;;0.60;0.60;;;17.40;57.20;;;;;;5091318;28;20666;-86
2022/06/02 07:45:52;;;;;;;0.73;0.73;;;17.50;57.60;;;;;;5078056;28;20639;-86
2022/06/02 07:48:48;;;;;;;0.87;0.83;;;17.60;57.70;;;;;;5091031;28;20682;-84
2022/06/02 07:51:20;;;;;;;2.03;1.10;;;17.70;57.70;;;;;;5091988;28;21085;-88
2022/06/02 07:54:00;;;;;;;0.70;0.70;;;17.80;55.50;;;;;;5090501;28;20670;-85
2022/06/02 07:56:37;;;;;;;0.80;0.80;;;17.90;55.50;;;;;;5089626;28;21025;-85
2022/06/02 07:59:18;;;;;;;1.23;1.13;;;18.10;56.70;;;;;;5091446;28;20986;-84
2022/06/02 08:02:13;;;;;;;0.80;0.80;;;18.10;55.50;;;;;;5091585;28;20937;-86
2022/06/02 08:04:48;;;;;;;1.40;1.30;;;18.10;55.40;;;;;;5090251;28;21210;-86
2022/06/02 08:07:25;;;;;;;1.60;1.50;;;18.10;56.40;;;;;;5089664;28;21135;-85
2022/06/02 08:10:03;;;;;;;0.93;0.70;;;18.20;56.50;;;;;;5090853;28;20647;-85
2022/06/02 08:12:40;;;;;;;1.20;1.20;;;18.50;57.10;;;;;;5090054;28;20625;-86
2022/06/02 08:15:22;;;;;;;0.77;0.77;;;18.70;55.80;;;;;;5090315;28;20673;-86
2022/06/02 08:17:55;;;;;;;0.97;0.93;;;18.80;54.50;;;;;;5090454;28;20672;-86
2022/06/02 08:20:37;;;;;;;0.70;0.67;;;18.80;54.80;;;;;;5090809;28;20662;-85
2022/06/02 08:23:15;;;;;;;0.90;0.90;;;18.90;54.40;;;;;;5089304;28;20641;-87
2022/06/02 08:25:57;;;;;;;0.73;0.73;;;18.90;55.60;;;;;;5089556;28;20620;-86
2022/06/02 08:28:43;;;;;;;0.70;0.70;;;18.90;55.50;;;;;;5089706;28;20670;-84
2022/06/02 08:31:19;;;;;;;2.73;1.30;;;18.90;55.10;;;;;;5089827;28;20613;-86
2022/06/02 08:33:54;;;;;;;0.70;0.70;;;19.10;54.90;;;;;;5089269;28;20652;-86
2022/06/02 08:36:27;;;;;;;1.03;0.83;;;19.10;55.00;;;;;;5092242;28;20672;-86
2022/06/02 08:39:27;;;;;;;1.50;1.20;;;19.20;54.00;;;;;;5108746;28;20626;-86
2022/06/02 08:42:17;;;;;;;0.97;0.97;;;19.40;54.20;;;;;;5111204;28;20718;-86
2022/06/02 08:45:08;;;;;;;1.03;0.90;;;19.60;54.20;;;;;;5110801;28;20619;-85
2022/06/02 08:48:14;;;;;;;0.93;0.70;;;19.70;52.00;;;;;;5110481;28;20628;-86
2022/06/02 08:51:30;;;;;;;0.90;0.80;;;19.50;53.70;;;;;;5110659;28;20683;-85
2022/06/02 08:54:34;;;;;;;0.60;0.60;;;19.50;55.10;;;;;;5109923;28;20693;-87
2022/06/02 08:57:33;;;;;;;1.33;1.23;;;19.60;54.40;;;;;;5110498;28;20614;-87
2022/06/02 09:00:22;;;;;;;0.60;0.60;;;19.80;52.70;;;;;;5111386;28;20647;-87
2022/06/02 09:03:31;;;;;;;1.00;0.90;;;19.90;52.40;;;;;;5109940;28;20619;-86
2022/06/02 09:06:43;;;;;;;0.77;0.77;;;19.80;54.00;;;;;;5079012;28;20678;-88
2022/06/02 09:09:30;;;;;;;1.47;1.10;;;19.90;53.60;;;;;;5109198;28;20623;-87
2022/06/02 09:12:16;;;;;;;0.67;0.67;;;19.90;54.90;;;;;;5109063;28;20624;-87
2022/06/02 09:15:16;;;;;;;1.80;1.30;;;19.90;54.80;;;;;;5108927;28;20756;-84
2022/06/02 09:17:53;;;;;;;1.00;1.00;;;19.90;53.70;;;;;;5109528;28;20731;-86
2022/06/02 09:20:40;;;;;;;1.33;1.13;;;20.30;54.30;;;;;;5108770;28;20627;-86
2022/06/02 09:23:37;;;;;;;2.03;1.10;;;19.60;51.60;;;;;;5111078;28;20659;-86
2022/06/02 09:26:21;;;;;;;1.20;1.10;;;19.80;52.70;;;;;;5114665;28;20688;-87
2022/06/02 09:29:21;;;;;;;0.97;0.97;;;20.10;52.40;;;;;;5114697;28;20654;-86
2022/06/02 09:32:03;;;;;;;1.10;1.03;;;20.40;54.60;;;;;;5115036;28;20722;-85
2022/06/02 09:35:11;;;;;;;0.80;0.80;;;20.60;52.60;;;;;;5114650;28;20651;-87
2022/06/02 09:38:07;;;;;;;0.87;0.87;;;20.90;52.70;;;;;;5114651;28;20680;-87
2022/06/02 09:41:01;;;;;;;1.20;0.80;;;21.00;52.20;;;;;;5110949;28;20793;-87
2022/06/02 09:44:05;;;;;;;1.17;0.90;;;21.10;52.20;;;;;;5103149;28;20628;-87
2022/06/02 09:47:01;;;;;;;1.27;1.20;;;21.10;51.30;;;;;;5092445;28;20705;-89
2022/06/02 09:50:20;;;;;;;0.83;0.83;;;21.40;51.50;;;;;;5089347;28;20629;-86
2022/06/02 09:53:13;;;;;;;1.13;0.70;;;20.20;51.40;;;;;;5092831;28;20976;-86
2022/06/02 09:55:55;;;;;;;1.47;1.37;;;20.60;53.00;;;;;;5090996;28;20660;-88
2022/06/02 09:58:47;;;;;;;1.07;0.97;;;21.10;52.00;;;;;;5092081;28;20669;-88
2022/06/02 10:01:38;;;;;;;1.10;1.00;;;21.40;52.60;;;;;;5092439;28;20630;-88
2022/06/02 10:04:38;;;;;;;1.30;0.83;;;21.70;52.90;;;;;;5088049;28;20705;-87
2022/06/02 10:07:28;;;;;;;1.47;1.37;;;21.80;53.40;;;;;;5092342;28;20631;-89
2022/06/02 10:10:28;;;;;;;1.10;1.10;;;22.00;51.30;;;;;;5094004;28;20712;-87
2022/06/02 10:13:14;;;;;;;1.07;1.07;;;22.10;51.10;;;;;;5093140;28;21036;-86
2022/06/02 10:16:09;;;;;;;1.00;1.00;;;22.10;49.90;;;;;;5108287;28;20626;-87
2022/06/02 10:19:07;;;;;;;1.10;1.10;;;22.20;50.40;;;;;;5113255;28;20714;-87
2022/06/02 10:21:46;;;;;;;0.90;0.90;;;22.50;49.90;;;;;;5113704;27;20619;-88
2022/06/02 10:24:42;;;;;;;1.53;1.40;;;22.70;49.60;;;;;;5113887;28;21259;-88
2022/06/02 10:27:37;;;;;;;1.20;1.20;;;22.90;51.90;;;;;;5113557;28;20665;-87
2022/06/02 10:30:43;;;;;;;0.97;0.90;;;23.00;50.20;;;;;;5102775;28;20638;-86
2022/06/02 10:33:54;;;;;;;0.77;0.77;;;22.80;50.50;;;;;;5106890;28;20639;-87
2022/06/02 10:36:50;;;;;;;1.07;1.00;;;21.80;50.60;;;;;;5062019;27;20655;-88
2022/06/02 10:39:41;;;;;;;0.67;0.67;;;22.30;55.00;;;;;;5112137;28;20673;-87
2022/06/02 10:42:26;;;;;;;0.70;0.63;;;22.40;51.80;;;;;;5110349;28;20635;-88
2022/06/02 10:45:19;;;;;;;1.03;1.00;;;22.90;51.60;;;;;;5113377;28;20647;-86
2022/06/02 10:48:34;;;;;;;1.17;1.17;;;23.30;50.60;;;;;;5112657;28;20653;-88
2022/06/02 10:51:25;;;;;;;1.53;1.13;;;23.60;49.40;;;;;;5049422;28;20629;-87
2022/06/02 10:54:14;;;;;;;0.90;0.90;;;23.70;49.30;;;;;;5108520;28;20762;-86
2022/06/02 10:57:23;;;;;;;1.00;0.90;;;23.90;49.20;;;;;;5110968;28;21196;-88
2022/06/02 11:00:21;;;;;;;1.20;1.10;;;24.10;49.50;;;;;;5114978;28;20987;-87
2022/06/02 11:03:41;;;;;;;1.10;1.00;;;23.20;48.10;;;;;;5114669;28;20619;-88
2022/06/02 11:06:43;;;;;;;1.10;1.10;;;23.70;49.40;;;;;;5049907;28;20635;-87
2022/06/02 11:09:45;;;;;;;1.27;1.20;;;24.10;49.80;;;;;;5049637;28;21249;-89
2022/06/02 11:12:52;;;;;;;1.10;1.10;;;24.40;48.80;;;;;;5103041;28;20666;-88
2022/06/02 11:15:44;;;;;;;1.23;1.17;;;24.60;47.80;;;;;;5111739;28;20712;-88
2022/06/02 11:18:56;;;;;;;0.80;0.80;;;24.80;48.70;;;;;;5113225;28;21261;-91
2022/06/02 11:22:05;;;;;;;1.57;1.30;;;25.20;47.60;;;;;;5048178;28;20638;-87
2022/06/02 11:25:20;;;;;;;1.00;1.00;;;25.60;49.60;;;;;;5113205;28;21056;-87
2022/06/02 11:28:27;;;;;;;1.53;1.00;;;25.70;48.00;;;;;;5112599;28;20738;-87
2022/06/02 11:31:21;;;;;;;1.53;1.37;;;25.80;47.40;;;;;;5076608;28;21106;-88
2022/06/02 11:34:16;;;;;;;1.30;1.20;;;25.90;45.90;;;;;;5112656;28;20636;-88
2022/06/02 11:37:19;;;;;;;1.10;1.00;;;26.20;45.90;;;;;;5112583;27;20612;-87
2022/06/02 11:40:31;;;;;;;1.00;1.00;;;26.50;45.50;;;;;;5109852;28;20646;-88
2022/06/02 11:43:11;;;;;;;1.13;1.07;;;26.60;46.60;;;;;;5066211;28;20644;-87
2022/06/02 11:46:19;;;;;;;0.97;0.97;;;26.70;45.90;;;;;;5091535;28;20623;-87
2022/06/02 11:49:10;;;;;;;1.27;1.20;;;26.80;44.50;;;;;;5091879;28;20671;-89
2022/06/02 11:51:55;;;;;;;1.33;1.20;;;27.00;45.70;;;;;;5094181;28;20673;-87
2022/06/02 11:54:56;;;;;;;1.00;1.00;;;27.30;45.30;;;;;;5091986;28;20644;-87
2022/06/02 11:57:49;;;;;;;1.00;1.00;;;27.70;46.30;;;;;;5090758;28;20652;-87
2022/06/02 12:00:54;;;;;;;1.20;1.10;;;28.10;45.80;;;;;;5090986;28;21192;-87
2022/06/02 12:03:46;;;;;;;0.87;0.87;;;28.70;43.60;;;;;;5092138;28;20654;-89
2022/06/02 12:06:37;;;;;;;1.07;1.07;;;29.10;42.40;;;;;;5088839;28;20711;-88
2022/06/02 12:09:33;;;;;;;1.20;1.20;;;29.10;42.30;;;;;;5076351;28;20686;-88
2022/06/02 12:12:31;;;;;;;1.13;1.10;;;28.90;42.80;;;;;;5091228;28;20624;-88
2022/06/02 12:15:26;;;;;;;0.83;0.83;;;29.20;42.20;;;;;;5078641;28;20668;-87
2022/06/02 12:18:14;;;;;;;1.27;1.17;;;29.70;42.40;;;;;;5091378;28;20636;-89
2022/06/02 12:21:13;;;;;;;1.20;1.10;;;29.70;42.30;;;;;;5090465;28;20616;-89
2022/06/02 12:24:04;;;;;;;1.47;1.37;;;29.80;41.50;;;;;;5090681;28;20632;-88
2022/06/02 12:26:50;;;;;;;0.90;0.90;;;29.50;41.40;;;;;;5091205;28;20634;-88
2022/06/02 12:29:31;;;;;;;1.67;1.57;;;28.90;42.20;;;;;;5091222;28;20669;-89
2022/06/02 12:32:21;;;;;;;0.70;0.70;;;28.20;42.70;;;;;;5109728;28;20662;-87
2022/06/02 12:35:19;;;;;;;1.30;1.30;;;28.00;43.40;;;;;;5111852;28;20659;-88
2022/06/02 12:38:06;;;;;;;1.33;1.23;;;28.00;43.20;;;;;;5110669;28;20636;-88
2022/06/02 12:40:44;;;;;;;0.87;0.87;;;27.80;42.10;;;;;;5111105;28;20635;-86
2022/06/02 12:43:43;;;;;;;1.30;1.20;;;27.80;44.40;;;;;;5111298;28;20607;-89
2022/06/02 12:46:36;;;;;;;1.00;1.00;;;27.90;44.40;;;;;;5083099;28;20696;-87
2022/06/02 12:49:37;;;;;;;1.00;1.00;;;28.10;43.70;;;;;;5108225;28;20718;-87
2022/06/02 13:00:07;;;;;;;1.20;1.10;;;27.60;44.00;;;;;;4911387;29;20702;-87
2022/06/02 13:03:03;;;;;;;1.30;1.20;;;27.50;44.80;;;;;;4931505;28;21081;-88
2022/06/02 13:06:03;;;;;;;1.50;1.30;;;28.90;42.10;;;;;;5061331;27;20623;-87
2022/06/02 13:09:10;;;;;;;1.03;0.80;;;29.80;42.50;;;;;;5113570;28;20678;-89
2022/06/02 13:12:02;;;;;;;0.90;0.90;;;30.30;41.10;;;;;;5113560;28;21215;-87
2022/06/02 13:14:57;;;;;;;1.07;1.03;;;30.80;41.80;;;;;;5113239;28;20639;-88
2022/06/02 13:18:01;;;;;;;1.20;1.20;;;31.00;42.60;;;;;;5085424;28;20666;-87
2022/06/02 13:20:54;;;;;;;1.40;1.30;;;29.90;42.70;;;;;;5113032;27;20615;-89
2022/06/02 13:23:53;;;;;;;1.03;1.03;;;29.90;41.50;;;;;;5113859;28;20761;-88
2022/06/02 13:26:54;;;;;;;1.10;1.10;;;29.80;42.90;;;;;;5113136;28;20622;-87
2022/06/02 13:29:47;;;;;;;1.00;1.00;;;29.50;42.00;;;;;;5113740;28;20615;-88
2022/06/02 13:32:50;;;;;;;1.10;1.10;;;29.10;42.80;;;;;;5113219;28;20674;-88
2022/06/02 13:35:35;;;;;;;1.23;1.20;;;28.60;42.60;;;;;;5087194;27;20666;-86
2022/06/02 13:38:46;;;;;;;1.47;1.23;;;28.20;44.00;;;;;;5112459;28;20608;-88
2022/06/02 13:41:35;;;;;;;0.70;0.70;;;27.80;43.70;;;;;;5112691;28;20713;-89
2022/06/02 13:44:22;;;;;;;1.30;1.20;;;27.40;44.60;;;;;;5112205;28;20688;-88
2022/06/02 13:47:26;;;;;;;1.37;1.27;;;26.60;46.10;;;;;;5111190;28;20710;-87
2022/06/02 13:50:26;;;;;;;1.43;1.33;;;25.90;46.40;;;;;;5091510;28;20616;-88
2022/06/02 13:53:38;;;;;;;1.50;1.40;;;25.20;48.50;;;;;;5091469;28;20659;-86
2022/06/02 13:59:46;;;;;;;0.80;0.80;;;25.20;47.80;;;;;;5091275;28;20632;-87
2022/06/02 14:02:51;;;;;;;0.90;0.90;;;25.50;47.90;;;;;;5059938;28;20992;-87
2022/06/02 14:05:40;;;;;;;0.70;0.70;;;26.10;47.70;;;;;;5090219;28;20620;-86
2022/06/02 14:08:41;;;;;;;1.40;1.30;;;27.30;46.00;;;;;;5091475;28;20685;-87
2022/06/02 14:11:26;;;;;;;1.70;1.60;;;27.70;44.20;;;;;;5082986;28;20639;-87
2022/06/02 14:14:12;;;;;;;1.23;1.13;;;28.50;45.30;;;;;;5091166;28;21133;-89
2022/06/02 14:16:51;;;;;;;1.10;1.10;;;29.60;43.90;;;;;;5090828;28;20698;-87
2022/06/02 14:19:43;;;;;;;1.40;1.33;;;29.90;43.40;;;;;;5090836;28;20989;-90
2022/06/02 14:22:19;;;;;;;1.20;1.10;;;29.00;44.20;;;;;;5091368;28;20689;-88
2022/06/02 14:24:54;;;;;;;0.90;0.90;;;29.40;41.90;;;;;;5091313;28;20604;-88
2022/06/02 14:27:29;;;;;;;1.07;1.07;;;29.70;42.80;;;;;;5096953;28;20657;-88
2022/06/02 14:30:05;;;;;;;1.70;1.60;;;29.60;43.40;;;;;;5111638;28;20725;-88
2022/06/02 14:32:41;;;;;;;1.63;1.33;;;29.80;41.90;;;;;;5111450;28;20658;-86
2022/06/02 14:35:34;;;;;;;1.47;1.10;;;28.70;43.20;;;;;;5110350;28;20654;-88
2022/06/02 14:38:11;;;;;;;1.90;1.70;;;27.40;43.70;;;;;;5110555;28;20631;-88
2022/06/02 14:40:43;;;;;;;1.17;1.17;;;26.70;44.40;;;;;;5110978;28;20611;-88
2022/06/02 14:43:34;;;;;;;1.83;1.37;;;26.40;45.00;;;;;;5110132;28;20627;-86
2022/06/02 14:46:26;;;;;;;1.23;1.03;;;26.10;46.60;;;;;;5110333;28;20703;-89